createdAt,value
2018-05-21T00:00:03.361Z,98080.78
2018-05-21T00:02:31.639Z,98084.12
2018-05-21T00:04:59.914Z,98080.72
2018-05-21T00:07:28.246Z,98077.17
2018-05-21T00:09:56.527Z,98076.42
2018-05-21T00:12:25.586Z,98073.91
2018-05-21T00:14:53.918Z,98072.85
2018-05-21T00:17:22.204Z,98071.92
2018-05-21T00:19:50.483Z,98076.11
2018-05-21T00:22:18.802Z,98069.28
2018-05-21T00:24:47.099Z,98061.80
2018-05-21T00:27:15.682Z,98066.06
2018-05-21T00:29:44.003Z,98071.75
2018-05-21T00:32:12.291Z,98059.78
2018-05-21T00:34:40.590Z,98061.84
2018-05-21T00:37:08.874Z,98061.95
2018-05-21T00:39:37.311Z,98057.75
2018-05-21T00:42:05.605Z,98052.73
2018-05-21T00:44:33.886Z,98049.89
2018-05-21T00:47:02.186Z,98053.24
2018-05-21T00:49:30.479Z,98054.80
2018-05-21T00:51:58.886Z,98059.54
2018-05-21T00:54:27.951Z,98054.55
2018-05-21T00:56:56.230Z,98053.52
2018-05-21T00:59:24.538Z,98051.27
2018-05-21T01:01:53.579Z,98048.06
2018-05-21T01:04:21.962Z,98050.66
2018-05-21T01:06:50.242Z,98046.84
2018-05-21T01:09:18.524Z,98044.67
2018-05-21T01:11:46.847Z,98055.28
2018-05-21T01:14:15.135Z,98056.56
2018-05-21T01:16:43.459Z,98050.30
2018-05-21T01:19:11.739Z,98052.32
2018-05-21T01:21:40.018Z,98048.33
2018-05-21T01:24:08.343Z,98045.84
2018-05-21T01:26:36.625Z,98055.44
2018-05-21T01:29:04.663Z,98050.16
2018-05-21T01:31:33.759Z,98060.05
2018-05-21T01:34:02.813Z,98053.67
2018-05-21T01:36:31.088Z,98057.95
2018-05-21T01:38:59.407Z,98060.24
2018-05-21T01:41:27.686Z,98056.98
2018-05-21T01:43:55.971Z,98061.17
2018-05-21T01:46:24.286Z,98055.86
2018-05-21T01:48:52.571Z,98059.66
2018-05-21T01:51:20.971Z,98050.02
2018-05-21T01:53:49.312Z,98049.55
2018-05-21T01:56:17.587Z,98043.70
2018-05-21T01:58:45.863Z,98044.28
2018-05-21T02:01:14.374Z,98044.17
2018-05-21T02:03:42.896Z,98045.20
2018-05-21T02:06:11.389Z,98048.28
2018-05-21T02:08:39.921Z,98048.05
2018-05-21T02:11:08.399Z,98040.66
2018-05-21T02:13:36.506Z,98041.61
2018-05-21T02:16:04.798Z,98041.61
2018-05-21T02:18:33.102Z,98038.51
2018-05-21T02:21:01.414Z,98033.73
2018-05-21T02:23:29.726Z,98033.06
2018-05-21T02:25:58.774Z,98034.29
2018-05-21T02:28:27.078Z,98038.77
2018-05-21T02:30:55.355Z,98034.41
2018-05-21T02:33:23.663Z,98030.83
2018-05-21T02:35:51.939Z,98034.39
2018-05-21T02:38:20.218Z,98037.25
2018-05-21T02:40:48.537Z,98036.81
2018-05-21T02:43:16.822Z,98034.28
2018-05-21T02:45:45.114Z,98039.41
2018-05-21T02:48:13.434Z,98034.61
2018-05-21T02:50:41.715Z,98040.11
2018-05-21T02:53:09.991Z,98040.75
2018-05-21T02:55:38.286Z,98038.19
2018-05-21T02:58:06.622Z,98042.89
2018-05-21T03:00:35.670Z,98035.22
2018-05-21T03:03:03.942Z,98036.84
2018-05-21T03:05:32.268Z,98033.23
2018-05-21T03:08:01.314Z,98037.94
2018-05-21T03:10:29.591Z,98043.95
2018-05-21T03:12:57.895Z,98040.02
2018-05-21T03:15:26.186Z,98039.12
2018-05-21T03:17:55.266Z,98036.77
2018-05-21T03:20:23.549Z,98034.16
2018-05-21T03:22:51.862Z,98041.16
2018-05-21T03:25:20.142Z,98042.45
2018-05-21T03:27:48.453Z,98047.36
2018-05-21T03:30:16.727Z,98047.56
2018-05-21T03:32:45.031Z,98052.48
2018-05-21T03:35:13.350Z,98049.22
2018-05-21T03:37:41.635Z,98043.45
2018-05-21T03:40:09.914Z,98046.02
2018-05-21T03:42:38.216Z,98046.83
2018-05-21T03:45:06.499Z,98040.62
2018-05-21T03:47:34.805Z,98044.28
2018-05-21T03:50:03.086Z,98049.78
2018-05-21T03:52:32.306Z,98046.31
2018-05-21T03:55:00.654Z,98044.13
2018-05-21T03:57:28.930Z,98043.33
2018-05-21T04:00:14.890Z,98040.61
2018-05-21T04:03:00.588Z,98043.88
2018-05-21T04:05:28.911Z,98045.70
2018-05-21T04:07:57.199Z,98047.53
2018-05-21T04:10:26.504Z,98043.30
2018-05-21T04:12:54.823Z,98047.52
2018-05-21T04:15:23.106Z,98048.98
2018-05-21T04:17:51.391Z,98044.09
2018-05-21T04:20:19.714Z,98038.09
2018-05-21T04:22:47.998Z,98044.08
2018-05-21T04:25:16.274Z,98042.93
2018-05-21T04:27:44.570Z,98043.56
2018-05-21T04:30:12.855Z,98048.59
2018-05-21T04:32:41.167Z,98042.11
2018-05-21T04:35:09.446Z,98043.14
2018-05-21T04:37:37.805Z,98042.55
2018-05-21T04:40:06.085Z,98048.58
2018-05-21T04:42:34.665Z,98044.16
2018-05-21T04:45:03.079Z,98054.41
2018-05-21T04:47:31.358Z,98049.52
2018-05-21T04:49:59.642Z,98050.22
2018-05-21T04:52:27.943Z,98045.36
2018-05-21T04:54:56.226Z,98048.89
2018-05-21T04:57:24.537Z,98049.32
2018-05-21T04:59:53.027Z,98048.67
2018-05-21T05:02:21.306Z,98048.42
2018-05-21T05:04:49.590Z,98046.91
2018-05-21T05:07:17.930Z,98047.10
2018-05-21T05:09:46.218Z,98044.77
2018-05-21T05:12:14.514Z,98048.88
2018-05-21T05:14:43.583Z,98046.06
2018-05-21T05:17:11.866Z,98044.97
2018-05-21T05:19:40.159Z,98044.06
2018-05-21T05:22:09.254Z,98037.32
2018-05-21T05:24:37.543Z,98043.02
2018-05-21T05:27:06.599Z,98051.68
2018-05-21T05:29:34.924Z,98049.95
2018-05-21T05:32:03.205Z,98042.45
2018-05-21T05:34:31.487Z,98037.76
2018-05-21T05:36:59.784Z,98040.82
2018-05-21T05:39:28.070Z,98042.89
2018-05-21T05:41:56.409Z,98046.62
2018-05-21T05:44:24.679Z,98043.22
2018-05-21T05:46:52.994Z,98039.69
2018-05-21T05:49:21.278Z,98038.36
2018-05-21T05:51:49.587Z,98041.23
2018-05-21T05:54:17.875Z,98042.47
2018-05-21T05:56:46.199Z,98043.39
2018-05-21T05:59:14.482Z,98038.97
2018-05-21T06:01:42.770Z,98041.98
2018-05-21T06:04:11.095Z,98028.20
2018-05-21T06:06:39.377Z,98041.00
2018-05-21T06:09:07.654Z,98047.01
2018-05-21T06:11:35.950Z,98045.22
2018-05-21T06:14:04.232Z,98050.97
2018-05-21T06:16:32.551Z,98049.25
2018-05-21T06:19:00.598Z,98042.45
2018-05-21T06:21:28.883Z,98043.08
2018-05-21T06:23:57.181Z,98045.11
2018-05-21T06:26:25.460Z,98048.86
2018-05-21T06:28:53.778Z,98052.86
2018-05-21T06:31:22.059Z,98047.63
2018-05-21T06:33:50.395Z,98048.97
2018-05-21T06:36:18.682Z,98048.01
2018-05-21T06:38:46.971Z,98049.53
2018-05-21T06:41:15.246Z,98050.41
2018-05-21T06:43:43.542Z,98049.74
2018-05-21T06:46:11.818Z,98057.95
2018-05-21T06:48:40.142Z,98053.78
2018-05-21T06:51:08.431Z,98054.98
2018-05-21T06:53:36.710Z,98056.48
2018-05-21T06:56:05.015Z,98056.59
2018-05-21T06:58:34.064Z,98054.35
2018-05-21T07:01:02.386Z,98050.13
2018-05-21T07:03:31.446Z,98043.33
2018-05-21T07:05:59.725Z,98045.41
2018-05-21T07:08:28.061Z,98047.53
2018-05-21T07:10:56.334Z,98038.58
2018-05-21T07:13:24.614Z,98043.05
2018-05-21T07:15:52.948Z,98039.86
2018-05-21T07:18:21.298Z,98043.08
2018-05-21T07:20:49.526Z,98033.55
2018-05-21T07:23:17.838Z,98028.05
2018-05-21T07:25:46.119Z,98040.45
2018-05-21T07:28:14.400Z,98035.45
2018-05-21T07:30:42.714Z,98036.13
2018-05-21T07:33:10.991Z,98033.17
2018-05-21T07:35:40.095Z,98027.13
2018-05-21T07:38:09.215Z,98024.84
2018-05-21T07:40:37.582Z,98027.40
2018-05-21T07:43:05.907Z,98026.44
2018-05-21T07:45:34.191Z,98023.12
2018-05-21T07:48:02.493Z,98024.83
2018-05-21T07:50:30.793Z,98015.89
2018-05-21T07:52:59.066Z,98016.70
2018-05-21T07:55:27.387Z,98007.03
2018-05-21T07:57:55.666Z,98006.63
2018-05-21T08:00:23.957Z,98006.05
2018-05-21T08:02:52.301Z,98003.24
2018-05-21T08:05:20.638Z,98004.80
2018-05-21T08:07:48.891Z,98003.87
2018-05-21T08:10:17.222Z,97996.77
2018-05-21T08:12:45.519Z,98002.33
2018-05-21T08:15:13.818Z,98001.55
2018-05-21T08:17:42.129Z,97999.24
2018-05-21T08:20:10.413Z,98004.14
2018-05-21T08:22:38.490Z,98006.03
2018-05-21T08:25:06.827Z,98002.27
2018-05-21T08:27:35.107Z,97998.98
2018-05-21T08:30:03.394Z,98004.06
2018-05-21T08:32:31.708Z,98007.75
2018-05-21T08:34:59.987Z,97996.45
2018-05-21T08:37:28.309Z,97992.83
2018-05-21T08:39:56.638Z,97995.34
2018-05-21T08:42:24.914Z,97989.87
2018-05-21T08:44:53.194Z,97978.92
2018-05-21T08:47:21.529Z,97979.90
2018-05-21T08:49:49.811Z,97983.81
2018-05-21T08:52:19.058Z,97980.22
2018-05-21T08:54:47.514Z,97979.38
2018-05-21T08:57:15.794Z,97979.08
2018-05-21T08:59:44.066Z,97976.91
2018-05-21T09:02:12.395Z,97982.20
2018-05-21T09:04:40.734Z,97982.56
2018-05-21T09:07:09.014Z,97975.25
2018-05-21T09:09:37.334Z,97974.04
2018-05-21T09:12:05.627Z,97972.01
2018-05-21T09:14:33.912Z,97973.45
2018-05-21T09:17:02.237Z,97964.33
2018-05-21T09:19:30.529Z,97957.42
2018-05-21T09:21:58.860Z,97961.82
2018-05-21T09:24:27.923Z,97965.56
2018-05-21T09:26:56.210Z,97960.41
2018-05-21T09:29:24.530Z,97964.80
2018-05-21T09:31:52.813Z,97958.11
2018-05-21T09:34:21.093Z,97957.55
2018-05-21T09:36:49.417Z,97958.22
2018-05-21T09:39:17.694Z,97954.92
2018-05-21T09:41:45.972Z,97953.78
2018-05-21T09:44:14.311Z,97953.39
2018-05-21T09:46:42.591Z,97950.87
2018-05-21T09:49:10.875Z,97947.59
2018-05-21T09:51:39.190Z,97947.89
2018-05-21T09:54:07.483Z,97937.69
2018-05-21T09:56:36.533Z,97938.80
2018-05-21T09:59:05.000Z,97940.38
2018-05-21T10:01:33.291Z,97932.23
2018-05-21T10:04:01.571Z,97929.02
2018-05-21T10:06:29.875Z,97923.84
2018-05-21T10:08:58.158Z,97924.04
2018-05-21T10:11:27.206Z,97926.96
2018-05-21T10:13:55.507Z,97926.20
2018-05-21T10:16:23.807Z,97921.52
2018-05-21T10:18:52.864Z,97918.67
2018-05-21T10:21:21.194Z,97922.97
2018-05-21T10:23:50.243Z,97913.31
2018-05-21T10:26:18.530Z,97915.80
2018-05-21T10:28:46.857Z,97908.46
2018-05-21T10:31:15.138Z,97906.66
2018-05-21T10:33:43.418Z,97907.81
2018-05-21T10:36:11.762Z,97903.89
2018-05-21T10:38:40.045Z,97896.32
2018-05-21T10:41:08.340Z,97904.08
2018-05-21T10:43:36.682Z,97903.64
2018-05-21T10:46:04.966Z,97902.83
2018-05-21T10:48:33.253Z,97902.17
2018-05-21T10:51:02.346Z,97890.22
2018-05-21T10:53:31.403Z,97889.97
2018-05-21T10:55:59.692Z,97885.88
2018-05-21T10:58:28.031Z,97888.97
2018-05-21T11:00:56.312Z,97895.71
2018-05-21T11:03:24.590Z,97886.39
2018-05-21T11:05:52.898Z,97889.43
2018-05-21T11:08:21.170Z,97878.77
2018-05-21T11:10:49.484Z,97878.91
2018-05-21T11:13:17.814Z,97877.94
2018-05-21T11:15:46.096Z,97876.81
2018-05-21T11:18:14.372Z,97874.20
2018-05-21T11:20:42.695Z,97869.52
2018-05-21T11:23:11.750Z,97867.48
2018-05-21T11:25:40.038Z,97858.02
2018-05-21T11:28:08.335Z,97870.13
2018-05-21T11:30:36.616Z,97853.83
2018-05-21T11:33:05.690Z,97852.37
2018-05-21T11:35:33.979Z,97845.80
2018-05-21T11:38:02.319Z,97846.53
2018-05-21T11:40:30.606Z,97838.26
2018-05-21T11:42:58.886Z,97838.56
2018-05-21T11:45:27.199Z,97838.23
2018-05-21T11:47:55.474Z,97840.08
2018-05-21T11:50:23.777Z,97830.39
2018-05-21T11:52:52.088Z,97834.13
2018-05-21T11:55:20.365Z,97832.04
2018-05-21T11:57:48.648Z,97832.39
2018-05-21T12:00:16.990Z,97829.15
2018-05-21T12:02:45.367Z,97829.37
2018-05-21T12:05:13.575Z,97824.39
2018-05-21T12:07:41.896Z,97822.48
2018-05-21T12:10:10.174Z,97813.81
2018-05-21T12:12:38.503Z,97810.03
2018-05-21T12:15:06.791Z,97813.95
2018-05-21T12:17:35.070Z,97807.94
2018-05-21T12:20:03.400Z,97805.55
2018-05-21T12:22:31.691Z,97809.03
2018-05-21T12:24:59.970Z,97802.28
2018-05-21T12:27:28.301Z,97804.94
2018-05-21T12:29:56.591Z,97795.28
2018-05-21T12:32:24.871Z,97794.94
2018-05-21T12:34:53.171Z,97801.09
2018-05-21T12:37:21.454Z,97792.39
2018-05-21T12:39:49.755Z,97786.41
2018-05-21T12:42:18.043Z,97794.61
2018-05-21T12:44:46.364Z,97793.75
2018-05-21T12:47:14.649Z,97797.28
2018-05-21T12:49:42.926Z,97792.83
2018-05-21T12:52:11.264Z,97783.84
2018-05-21T12:54:39.600Z,97787.33
2018-05-21T12:57:07.839Z,97784.86
2018-05-21T12:59:36.139Z,97781.17
2018-05-21T13:02:04.420Z,97780.56
2018-05-21T13:04:32.718Z,97773.84
2018-05-21T13:07:00.999Z,97775.76
2018-05-21T13:09:29.299Z,97768.50
2018-05-21T13:11:57.575Z,97770.11
2018-05-21T13:14:25.887Z,97775.53
2018-05-21T13:16:54.171Z,97768.51
2018-05-21T13:19:22.458Z,97768.22
2018-05-21T13:21:50.764Z,97766.52
2018-05-21T13:24:19.041Z,97761.20
2018-05-21T13:26:47.318Z,97757.58
2018-05-21T13:29:15.635Z,97758.25
2018-05-21T13:31:43.678Z,97754.41
2018-05-21T13:34:11.961Z,97746.26
2018-05-21T13:36:40.301Z,97750.07
2018-05-21T13:39:08.583Z,97745.35
2018-05-21T13:41:36.862Z,97751.66
2018-05-21T13:44:05.194Z,97746.73
2018-05-21T13:46:34.250Z,97733.51
2018-05-21T13:49:02.535Z,97733.49
2018-05-21T13:51:30.878Z,97728.95
2018-05-21T13:53:59.155Z,97727.72
2018-05-21T13:56:27.431Z,97722.36
2018-05-21T13:58:55.849Z,97725.62
2018-05-21T14:01:24.059Z,97719.81
2018-05-21T14:03:52.123Z,97715.61
2018-05-21T14:06:20.431Z,97711.03
2018-05-21T14:08:48.721Z,97715.14
2018-05-21T14:11:17.077Z,97715.80
2018-05-21T14:13:45.306Z,97710.44
2018-05-21T14:16:13.621Z,97710.56
2018-05-21T14:18:41.928Z,97705.08
2018-05-21T14:21:10.219Z,97702.95
2018-05-21T14:23:38.498Z,97694.89
2018-05-21T14:26:06.822Z,97694.38
2018-05-21T14:28:35.107Z,97691.95
2018-05-21T14:31:03.390Z,97689.91
2018-05-21T14:33:31.855Z,97691.08
2018-05-21T14:36:00.138Z,97684.86
2018-05-21T14:38:28.427Z,97687.05
2018-05-21T14:40:56.727Z,97683.84
2018-05-21T14:43:25.032Z,97681.86
2018-05-21T14:45:53.331Z,97681.22
2018-05-21T14:48:21.689Z,97684.32
2018-05-21T14:50:50.688Z,97674.40
2018-05-21T14:53:18.965Z,97672.85
2018-05-21T14:55:47.249Z,97671.03
2018-05-21T14:58:15.567Z,97670.63
2018-05-21T15:00:43.859Z,97671.84
2018-05-21T15:03:12.139Z,97666.42
2018-05-21T15:05:40.460Z,97661.53
2018-05-21T15:08:08.743Z,97665.62
2018-05-21T15:10:37.018Z,97670.91
2018-05-21T15:13:05.339Z,97665.95
2018-05-21T15:15:33.628Z,97666.23
2018-05-21T15:18:01.927Z,97667.63
2018-05-21T15:20:30.262Z,97668.47
2018-05-21T15:22:58.542Z,97667.11
2018-05-21T15:25:26.827Z,97669.72
2018-05-21T15:27:55.138Z,97670.41
2018-05-21T15:30:23.418Z,97672.03
2018-05-21T15:32:51.738Z,97670.75
2018-05-21T15:35:20.018Z,97667.91
2018-05-21T15:37:48.308Z,97674.20
2018-05-21T15:40:16.611Z,97666.25
2018-05-21T15:42:44.889Z,97666.73
2018-05-21T15:45:13.175Z,97662.34
2018-05-21T15:47:41.503Z,97657.94
2018-05-21T15:50:09.788Z,97654.84
2018-05-21T15:52:38.079Z,97654.32
2018-05-21T15:55:06.401Z,97656.97
2018-05-21T15:57:34.752Z,97659.95
2018-05-21T16:00:02.970Z,97659.28
2018-05-21T16:02:31.284Z,97648.92
2018-05-21T16:04:59.559Z,97656.45
2018-05-21T16:07:27.830Z,97654.31
2018-05-21T16:09:56.146Z,97654.92
2018-05-21T16:12:24.420Z,97656.73
2018-05-21T16:14:52.695Z,97659.19
2018-05-21T16:17:21.026Z,97661.72
2018-05-21T16:19:50.080Z,97663.92
2018-05-21T16:22:18.362Z,97659.19
2018-05-21T16:24:46.679Z,97663.94
2018-05-21T16:27:14.959Z,97669.22
2018-05-21T16:29:43.249Z,97664.30
2018-05-21T16:32:11.574Z,97670.69
2018-05-21T16:34:39.859Z,97663.24
2018-05-21T16:37:08.150Z,97667.12
2018-05-21T16:39:36.465Z,97664.60
2018-05-21T16:42:04.737Z,97674.13
2018-05-21T16:44:33.019Z,97670.47
2018-05-21T16:47:01.343Z,97668.58
2018-05-21T16:49:30.234Z,97675.92
2018-05-21T16:51:58.513Z,97667.64
2018-05-21T16:54:26.842Z,97667.52
2018-05-21T16:56:55.119Z,97671.86
2018-05-21T16:59:23.407Z,97671.80
2018-05-21T17:01:51.730Z,97676.08
2018-05-21T17:04:20.038Z,97666.73
2018-05-21T17:06:48.320Z,97665.53
2018-05-21T17:09:16.646Z,97663.16
2018-05-21T17:11:44.935Z,97667.13
2018-05-21T17:14:13.214Z,97662.01
2018-05-21T17:16:42.278Z,97653.12
2018-05-21T17:19:10.569Z,97654.88
2018-05-21T17:21:38.906Z,97647.08
2018-05-21T17:24:07.183Z,97652.88
2018-05-21T17:26:35.462Z,97646.97
2018-05-21T17:29:03.771Z,97647.34
2018-05-21T17:31:32.060Z,97645.28
2018-05-21T17:34:00.334Z,97643.48
2018-05-21T17:36:28.650Z,97649.98
2018-05-21T17:38:56.936Z,97650.44
2018-05-21T17:41:25.222Z,97650.56
2018-05-21T17:43:53.538Z,97654.56
2018-05-21T17:46:21.826Z,97648.46
2018-05-21T17:48:50.159Z,97656.00
2018-05-21T17:51:18.439Z,97655.95
2018-05-21T17:53:46.718Z,97671.04
2018-05-21T17:56:15.053Z,97672.66
2018-05-21T17:58:43.349Z,97671.75
2018-05-21T18:01:11.640Z,97669.06
2018-05-21T18:03:39.955Z,97670.38
2018-05-21T18:06:08.243Z,97673.63
2018-05-21T18:08:36.519Z,97672.59
2018-05-21T18:11:04.826Z,97677.34
2018-05-21T18:13:33.868Z,97671.39
2018-05-21T18:16:02.144Z,97686.76
2018-05-21T18:18:30.479Z,97702.65
2018-05-21T18:20:58.762Z,97701.66
2018-05-21T18:23:27.037Z,97707.58
2018-05-21T18:25:55.614Z,97727.22
2018-05-21T18:28:23.898Z,97727.78
2018-05-21T18:30:52.184Z,97731.42
2018-05-21T18:33:20.659Z,97733.27
2018-05-21T18:35:49.017Z,97742.03
2018-05-21T18:38:17.254Z,97754.05
2018-05-21T18:40:45.558Z,97758.81
2018-05-21T18:43:14.620Z,97762.50
2018-05-21T18:45:42.902Z,97755.08
2018-05-21T18:48:11.225Z,97759.73
2018-05-21T18:50:40.272Z,97758.61
2018-05-21T18:53:08.568Z,97753.82
2018-05-21T18:55:36.903Z,97756.95
2018-05-21T18:58:05.182Z,97765.48
2018-05-21T19:00:33.467Z,97769.63
2018-05-21T19:03:01.790Z,97770.50
2018-05-21T19:05:30.078Z,97774.52
2018-05-21T19:07:58.374Z,97773.45
2018-05-21T19:10:26.712Z,97778.06
2018-05-21T19:12:54.993Z,97780.23
2018-05-21T19:15:23.274Z,97778.20
2018-05-21T19:17:51.599Z,97784.13
2018-05-21T19:20:19.646Z,97774.03
2018-05-21T19:22:48.696Z,97775.63
2018-05-21T19:25:17.027Z,97767.45
2018-05-21T19:27:45.348Z,97773.48
2018-05-21T19:30:13.647Z,97775.34
2018-05-21T19:32:41.978Z,97767.48
2018-05-21T19:35:10.263Z,97776.95
2018-05-21T19:37:38.543Z,97782.03
2018-05-21T19:40:06.982Z,97781.70
2018-05-21T19:42:35.502Z,97788.83
2018-05-21T19:45:03.782Z,97795.25
2018-05-21T19:47:32.090Z,97802.77
2018-05-21T19:50:00.375Z,97814.17
2018-05-21T19:52:28.646Z,97807.21
2018-05-21T19:54:56.958Z,97798.84
2018-05-21T19:57:25.240Z,97784.39
2018-05-21T19:59:53.515Z,97781.34
2018-05-21T20:02:21.828Z,97762.80
2018-05-21T20:04:50.115Z,97762.78
2018-05-21T20:07:18.497Z,97770.39
2018-05-21T20:09:46.739Z,97783.68
2018-05-21T20:12:15.023Z,97781.70
2018-05-21T20:14:43.302Z,97776.27
2018-05-21T20:17:11.619Z,97765.75
2018-05-21T20:19:39.914Z,97767.54
2018-05-21T20:22:08.960Z,97776.15
2018-05-21T20:24:37.263Z,97776.73
2018-05-21T20:27:05.547Z,97757.80
2018-05-21T20:29:33.877Z,97761.27
2018-05-21T20:32:02.159Z,97753.91
2018-05-21T20:34:30.442Z,97754.76
2018-05-21T20:36:58.781Z,97743.75
2018-05-21T20:39:27.071Z,97735.66
2018-05-21T20:41:55.356Z,97742.73
2018-05-21T20:44:23.665Z,97743.34
2018-05-21T20:46:51.954Z,97737.37
2018-05-21T20:49:20.242Z,97737.77
2018-05-21T20:51:48.571Z,97740.61
2018-05-21T20:54:16.854Z,97746.45
2018-05-21T20:56:45.144Z,97766.08
2018-05-21T20:59:13.455Z,97760.16
2018-05-21T21:01:41.737Z,97754.64
2018-05-21T21:04:10.018Z,97745.61
2018-05-21T21:06:38.499Z,97750.27
2018-05-21T21:09:06.782Z,97745.56
2018-05-21T21:11:35.109Z,97750.59
2018-05-21T21:14:03.451Z,97750.58
2018-05-21T21:16:31.733Z,97758.55
2018-05-21T21:19:00.040Z,97755.38
2018-05-21T21:21:28.339Z,97755.92
2018-05-21T21:23:56.676Z,97747.84
2018-05-21T21:26:24.952Z,97745.94
2018-05-21T21:28:53.238Z,97742.38
2018-05-21T21:31:21.571Z,97755.54
2018-05-21T21:33:50.628Z,97755.47
2018-05-21T21:36:18.912Z,97758.63
2018-05-21T21:38:47.294Z,97759.02
2018-05-21T21:41:15.582Z,97762.64
2018-05-21T21:43:43.863Z,97760.52
2018-05-21T21:46:12.167Z,97762.20
2018-05-21T21:48:40.455Z,97759.03
2018-05-21T21:51:08.782Z,97765.92
2018-05-21T21:53:37.063Z,97764.64
2018-05-21T21:56:05.347Z,97762.26
2018-05-21T21:58:33.690Z,97758.92
2018-05-21T22:01:01.974Z,97759.81
2018-05-21T22:03:30.258Z,97752.27
2018-05-21T22:05:58.575Z,97743.48
2018-05-21T22:08:26.858Z,97743.75
2018-05-21T22:10:55.134Z,97745.06
2018-05-21T22:13:23.444Z,97746.25
2018-05-21T22:15:51.735Z,97746.28
2018-05-21T22:18:20.050Z,97755.14
2018-05-21T22:20:48.322Z,97755.64
2018-05-21T22:23:16.598Z,97746.11
2018-05-21T22:25:44.921Z,97753.47
2018-05-21T22:28:13.301Z,97744.64
2018-05-21T22:30:41.498Z,97745.53
2018-05-21T22:33:09.831Z,97743.09
2018-05-21T22:35:38.110Z,97748.48
2018-05-21T22:38:06.413Z,97751.53
2018-05-21T22:40:34.718Z,97752.02
2018-05-21T22:43:03.007Z,97748.91
2018-05-21T22:45:31.294Z,97754.73
2018-05-21T22:47:59.609Z,97745.59
2018-05-21T22:50:27.885Z,97744.46
2018-05-21T22:52:56.187Z,97746.12
2018-05-21T22:55:24.494Z,97743.42
2018-05-21T22:57:52.773Z,97744.67
2018-05-21T23:00:21.054Z,97747.16
2018-05-21T23:02:49.367Z,97746.80
2018-05-21T23:05:17.650Z,97746.59
2018-05-21T23:07:45.939Z,97732.76
2018-05-21T23:10:14.282Z,97736.81
2018-05-21T23:12:43.344Z,97740.16
2018-05-21T23:15:11.634Z,97733.41
2018-05-21T23:17:39.951Z,97730.42
2018-05-21T23:20:08.246Z,97731.44
2018-05-21T23:22:51.424Z,97731.00
2018-05-21T23:25:19.715Z,97724.88
2018-05-21T23:27:48.533Z,97718.89
2018-05-21T23:30:16.858Z,97723.00
2018-05-21T23:32:45.138Z,97713.17
2018-05-21T23:35:13.423Z,97723.07
2018-05-21T23:37:41.738Z,97716.52
2018-05-21T23:40:10.029Z,97714.69
2018-05-21T23:42:38.332Z,97718.53
2018-05-21T23:45:06.682Z,97716.98
2018-05-21T23:47:34.980Z,97715.30
2018-05-21T23:50:03.265Z,97728.30
2018-05-21T23:52:31.590Z,97725.15
2018-05-21T23:55:00.642Z,97721.67
2018-05-21T23:57:28.931Z,97726.98
2018-05-21T23:59:57.254Z,97716.52
